sensor_id;sensor_type;location;lat;lon;timestamp;pressure;altitude;pressure_sealevel;temperature;humidity
20696;BME280;10507;52.754;13.040;2023-05-29T00:00:07;101470.19;;;12.59;89.84
20696;BME280;10507;52.754;13.040;2023-05-29T00:02:36;101465.09;;;12.53;88.91
20696;BME280;10507;52.754;13.040;2023-05-29T00:05:05;101488.50;;;12.50;90.38
20696;BME280;10507;52.754;13.040;2023-05-29T00:07:33;101492.91;;;12.51;89.70
20696;BME280;10507;52.754;13.040;2023-05-29T00:10:01;101502.97;;;12.45;91.08
20696;BME280;10507;52.754;13.040;2023-05-29T00:12:29;101497.88;;;12.39;91.50
20696;BME280;10507;52.754;13.040;2023-05-29T00:14:57;101506.09;;;12.35;91.70
20696;BME280;10507;52.754;13.040;2023-05-29T00:17:25;101518.63;;;12.34;91.23
20696;BME280;10507;52.754;13.040;2023-05-29T00:19:54;101501.00;;;12.28;91.61
20696;BME280;10507;52.754;13.040;2023-05-29T00:22:22;101506.56;;;12.24;92.37
20696;BME280;10507;52.754;13.040;2023-05-29T00:24:50;101503.97;;;12.22;91.30
20696;BME280;10507;52.754;13.040;2023-05-29T00:27:18;101506.66;;;12.22;91.09
20696;BME280;10507;52.754;13.040;2023-05-29T00:29:46;101500.44;;;12.22;91.45
20696;BME280;10507;52.754;13.040;2023-05-29T00:32:16;101494.28;;;12.20;91.36
20696;BME280;10507;52.754;13.040;2023-05-29T00:34:44;101493.72;;;12.12;90.47
20696;BME280;10507;52.754;13.040;2023-05-29T00:37:13;101495.84;;;12.03;91.83
20696;BME280;10507;52.754;13.040;2023-05-29T00:39:41;101501.47;;;11.97;91.42
20696;BME280;10507;52.754;13.040;2023-05-29T00:42:09;101507.75;;;11.96;91.87
20696;BME280;10507;52.754;13.040;2023-05-29T00:44:37;101511.38;;;11.95;91.59
20696;BME280;10507;52.754;13.040;2023-05-29T00:47:05;101503.59;;;11.89;92.20
20696;BME280;10507;52.754;13.040;2023-05-29T00:49:34;101508.44;;;11.79;92.63
20696;BME280;10507;52.754;13.040;2023-05-29T00:52:04;101520.19;;;11.75;92.81
20696;BME280;10507;52.754;13.040;2023-05-29T00:54:35;101519.50;;;11.70;93.54
20696;BME280;10507;52.754;13.040;2023-05-29T00:57:04;101528.78;;;11.61;93.50
20696;BME280;10507;52.754;13.040;2023-05-29T00:59:33;101531.69;;;11.55;93.68
20696;BME280;10507;52.754;13.040;2023-05-29T01:02:02;101546.94;;;11.53;94.63
20696;BME280;10507;52.754;13.040;2023-05-29T01:04:31;101546.00;;;11.54;94.28
20696;BME280;10507;52.754;13.040;2023-05-29T01:07:00;101548.63;;;11.56;94.73
20696;BME280;10507;52.754;13.040;2023-05-29T01:09:29;101547.81;;;11.54;94.55
20696;BME280;10507;52.754;13.040;2023-05-29T01:12:03;101555.97;;;11.51;94.48
20696;BME280;10507;52.754;13.040;2023-05-29T01:14:45;101542.63;;;11.49;94.69
20696;BME280;10507;52.754;13.040;2023-05-29T01:17:22;101535.78;;;11.42;94.93
20696;BME280;10507;52.754;13.040;2023-05-29T01:20:14;101532.63;;;11.32;94.91
20696;BME280;10507;52.754;13.040;2023-05-29T01:22:58;101527.22;;;11.10;95.71
20696;BME280;10507;52.754;13.040;2023-05-29T01:25:44;101556.84;;;11.04;96.06
20696;BME280;10507;52.754;13.040;2023-05-29T01:28:20;101568.56;;;11.00;96.59
20696;BME280;10507;52.754;13.040;2023-05-29T01:30:49;101581.28;;;10.93;97.06
20696;BME280;10507;52.754;13.040;2023-05-29T01:33:18;101580.69;;;10.85;96.40
20696;BME280;10507;52.754;13.040;2023-05-29T01:35:46;101587.09;;;10.81;97.03
20696;BME280;10507;52.754;13.040;2023-05-29T01:38:14;101601.50;;;10.75;97.92
20696;BME280;10507;52.754;13.040;2023-05-29T01:40:42;101599.88;;;10.71;98.93
20696;BME280;10507;52.754;13.040;2023-05-29T01:43:10;101615.16;;;10.68;98.61
20696;BME280;10507;52.754;13.040;2023-05-29T01:45:40;101612.81;;;10.58;98.80
20696;BME280;10507;52.754;13.040;2023-05-29T01:48:08;101614.00;;;10.50;99.27
20696;BME280;10507;52.754;13.040;2023-05-29T01:50:36;101623.16;;;10.43;99.58
20696;BME280;10507;52.754;13.040;2023-05-29T01:53:05;101641.69;;;10.47;100.00
20696;BME280;10507;52.754;13.040;2023-05-29T01:55:33;101625.16;;;10.36;100.00
20696;BME280;10507;52.754;13.040;2023-05-29T01:58:01;101638.50;;;10.36;100.00
20696;BME280;10507;52.754;13.040;2023-05-29T02:00:29;101643.69;;;10.40;100.00
20696;BME280;10507;52.754;13.040;2023-05-29T02:02:58;101642.75;;;10.42;100.00
20696;BME280;10507;52.754;13.040;2023-05-29T02:05:27;101668.09;;;10.55;100.00
20696;BME280;10507;52.754;13.040;2023-05-29T02:07:57;101660.91;;;10.57;100.00
20696;BME280;10507;52.754;13.040;2023-05-29T02:10:25;101669.59;;;10.64;100.00
20696;BME280;10507;52.754;13.040;2023-05-29T02:12:53;101676.47;;;10.71;100.00
20696;BME280;10507;52.754;13.040;2023-05-29T02:15:21;101659.53;;;10.72;100.00
20696;BME280;10507;52.754;13.040;2023-05-29T02:17:50;101659.47;;;10.73;100.00
20696;BME280;10507;52.754;13.040;2023-05-29T02:20:20;101646.94;;;10.75;100.00
20696;BME280;10507;52.754;13.040;2023-05-29T02:22:48;101648.06;;;10.68;100.00
20696;BME280;10507;52.754;13.040;2023-05-29T02:25:16;101656.09;;;10.68;100.00
20696;BME280;10507;52.754;13.040;2023-05-29T02:27:43;101670.31;;;10.69;100.00
20696;BME280;10507;52.754;13.040;2023-05-29T02:30:11;101676.47;;;10.71;100.00
20696;BME280;10507;52.754;13.040;2023-05-29T02:32:40;101672.81;;;10.73;100.00
20696;BME280;10507;52.754;13.040;2023-05-29T02:35:08;101669.25;;;10.74;100.00
20696;BME280;10507;52.754;13.040;2023-05-29T02:37:38;101673.63;;;10.75;100.00
20696;BME280;10507;52.754;13.040;2023-05-29T02:40:07;101668.22;;;10.78;100.00
20696;BME280;10507;52.754;13.040;2023-05-29T02:42:35;101662.09;;;10.75;99.91
20696;BME280;10507;52.754;13.040;2023-05-29T02:45:04;101676.16;;;10.80;99.48
20696;BME280;10507;52.754;13.040;2023-05-29T02:47:33;101676.94;;;10.84;99.47
20696;BME280;10507;52.754;13.040;2023-05-29T02:50:01;101676.84;;;10.85;99.61
20696;BME280;10507;52.754;13.040;2023-05-29T02:52:30;101689.16;;;10.91;99.66
20696;BME280;10507;52.754;13.040;2023-05-29T02:54:59;101697.13;;;10.92;100.00
20696;BME280;10507;52.754;13.040;2023-05-29T02:57:27;101701.47;;;10.95;99.55
20696;BME280;10507;52.754;13.040;2023-05-29T02:59:55;101704.97;;;10.97;99.83
20696;BME280;10507;52.754;13.040;2023-05-29T03:02:23;101710.31;;;10.97;100.00
20696;BME280;10507;52.754;13.040;2023-05-29T03:04:52;101706.00;;;10.93;100.00
20696;BME280;10507;52.754;13.040;2023-05-29T03:07:20;101723.75;;;10.94;100.00
20696;BME280;10507;52.754;13.040;2023-05-29T03:09:48;101728.41;;;10.89;100.00
20696;BME280;10507;52.754;13.040;2023-05-29T03:12:18;101732.97;;;10.85;100.00
20696;BME280;10507;52.754;13.040;2023-05-29T03:14:46;101748.91;;;10.88;100.00
20696;BME280;10507;52.754;13.040;2023-05-29T03:17:14;101751.66;;;10.85;100.00
20696;BME280;10507;52.754;13.040;2023-05-29T03:19:42;101754.41;;;10.84;100.00
20696;BME280;10507;52.754;13.040;2023-05-29T03:22:09;101777.34;;;10.89;100.00
20696;BME280;10507;52.754;13.040;2023-05-29T03:24:37;101774.44;;;10.97;100.00
20696;BME280;10507;52.754;13.040;2023-05-29T03:27:05;101761.91;;;10.99;100.00
20696;BME280;10507;52.754;13.040;2023-05-29T03:29:35;101763.53;;;11.03;100.00
20696;BME280;10507;52.754;13.040;2023-05-29T03:32:04;101738.56;;;11.04;100.00
20696;BME280;10507;52.754;13.040;2023-05-29T03:34:32;101733.94;;;11.09;99.94
20696;BME280;10507;52.754;13.040;2023-05-29T03:37:00;101734.75;;;11.11;99.71
20696;BME280;10507;52.754;13.040;2023-05-29T03:39:28;101737.25;;;11.16;99.92
20696;BME280;10507;52.754;13.040;2023-05-29T03:41:56;101742.53;;;11.19;99.74
20696;BME280;10507;52.754;13.040;2023-05-29T03:44:24;101724.06;;;11.11;100.00
20696;BME280;10507;52.754;13.040;2023-05-29T03:46:53;101740.97;;;11.12;99.61
20696;BME280;10507;52.754;13.040;2023-05-29T03:49:21;101744.38;;;11.17;99.54
20696;BME280;10507;52.754;13.040;2023-05-29T03:51:49;101745.13;;;11.20;99.77
20696;BME280;10507;52.754;13.040;2023-05-29T03:54:17;101776.13;;;11.26;99.46
20696;BME280;10507;52.754;13.040;2023-05-29T03:56:44;101775.03;;;11.32;99.89
20696;BME280;10507;52.754;13.040;2023-05-29T03:59:12;101811.22;;;11.42;100.00
20696;BME280;10507;52.754;13.040;2023-05-29T04:01:40;101823.44;;;11.49;100.00
20696;BME280;10507;52.754;13.040;2023-05-29T04:04:09;101804.59;;;11.52;100.00
20696;BME280;10507;52.754;13.040;2023-05-29T04:06:38;101810.56;;;11.60;99.46
20696;BME280;10507;52.754;13.040;2023-05-29T04:09:07;101827.09;;;11.72;99.52
20696;BME280;10507;52.754;13.040;2023-05-29T04:11:35;101862.00;;;11.95;99.24
20696;BME280;10507;52.754;13.040;2023-05-29T04:14:03;101820.78;;;11.99;98.79
20696;BME280;10507;52.754;13.040;2023-05-29T04:16:31;101800.13;;;12.03;98.42
20696;BME280;10507;52.754;13.040;2023-05-29T04:18:59;101774.34;;;12.00;97.76
20696;BME280;10507;52.754;13.040;2023-05-29T04:21:28;101771.81;;;11.97;97.26
20696;BME280;10507;52.754;13.040;2023-05-29T04:23:58;101772.59;;;11.99;97.09
20696;BME280;10507;52.754;13.040;2023-05-29T04:26:26;101771.72;;;11.99;97.28
20696;BME280;10507;52.754;13.040;2023-05-29T04:28:55;101793.03;;;12.02;96.71
20696;BME280;10507;52.754;13.040;2023-05-29T04:31:24;101813.28;;;12.09;97.03
20696;BME280;10507;52.754;13.040;2023-05-29T04:33:53;101839.75;;;12.17;97.67
20696;BME280;10507;52.754;13.040;2023-05-29T04:36:23;101856.88;;;12.36;97.08
20696;BME280;10507;52.754;13.040;2023-05-29T04:38:55;101851.69;;;12.55;96.39
20696;BME280;10507;52.754;13.040;2023-05-29T04:41:23;101842.19;;;12.70;95.40
20696;BME280;10507;52.754;13.040;2023-05-29T04:43:55;101842.25;;;12.90;94.05
20696;BME280;10507;52.754;13.040;2023-05-29T04:46:24;101879.44;;;13.20;94.26
20696;BME280;10507;52.754;13.040;2023-05-29T04:48:52;101865.34;;;13.59;92.03
20696;BME280;10507;52.754;13.040;2023-05-29T04:51:20;101780.56;;;13.74;90.92
20696;BME280;10507;52.754;13.040;2023-05-29T04:53:49;101756.19;;;13.99;89.43
20696;BME280;10507;52.754;13.040;2023-05-29T04:56:19;101703.25;;;14.01;88.51
20696;BME280;10507;52.754;13.040;2023-05-29T04:58:47;101718.34;;;14.23;87.75
20696;BME280;10507;52.754;13.040;2023-05-29T05:01:15;101713.69;;;14.45;87.29
20696;BME280;10507;52.754;13.040;2023-05-29T05:03:44;101693.50;;;14.73;86.03
20696;BME280;10507;52.754;13.040;2023-05-29T05:06:12;101637.06;;;14.73;85.79
20696;BME280;10507;52.754;13.040;2023-05-29T05:08:39;101591.75;;;14.65;86.01
20696;BME280;10507;52.754;13.040;2023-05-29T05:11:07;101605.81;;;14.70;85.78
20696;BME280;10507;52.754;13.040;2023-05-29T05:13:36;101522.19;;;14.59;85.25
20696;BME280;10507;52.754;13.040;2023-05-29T05:16:05;101607.66;;;14.87;85.29
20696;BME280;10507;52.754;13.040;2023-05-29T05:18:33;101643.38;;;15.07;85.04
20696;BME280;10507;52.754;13.040;2023-05-29T05:21:01;101776.88;;;15.77;84.18
20696;BME280;10507;52.754;13.040;2023-05-29T05:23:30;101695.75;;;16.47;80.94
20696;BME280;10507;52.754;13.040;2023-05-29T05:26:14;101498.59;;;16.39;79.20
20696;BME280;10507;52.754;13.040;2023-05-29T05:28:44;101435.31;;;16.16;80.04
20696;BME280;10507;52.754;13.040;2023-05-29T05:31:12;101498.63;;;16.23;80.48
20696;BME280;10507;52.754;13.040;2023-05-29T05:33:41;101522.66;;;16.56;79.95
20696;BME280;10507;52.754;13.040;2023-05-29T05:36:09;101529.34;;;16.65;80.08
20696;BME280;10507;52.754;13.040;2023-05-29T05:38:37;101369.41;;;16.36;79.11
20696;BME280;10507;52.754;13.040;2023-05-29T05:41:07;101429.66;;;16.49;79.79
20696;BME280;10507;52.754;13.040;2023-05-29T05:43:35;101553.97;;;17.18;78.56
20696;BME280;10507;52.754;13.040;2023-05-29T05:46:04;101474.25;;;17.27;77.23
20696;BME280;10507;52.754;13.040;2023-05-29T05:48:32;101356.13;;;17.30;75.49
20696;BME280;10507;52.754;13.040;2023-05-29T05:51:00;101339.59;;;17.22;75.76
20696;BME280;10507;52.754;13.040;2023-05-29T05:53:28;101477.13;;;17.92;74.49
20696;BME280;10507;52.754;13.040;2023-05-29T05:55:56;101447.69;;;18.27;73.56
20696;BME280;10507;52.754;13.040;2023-05-29T05:58:24;101558.81;;;19.14;71.61
20696;BME280;10507;52.754;13.040;2023-05-29T06:00:52;101379.00;;;19.53;68.99
20696;BME280;10507;52.754;13.040;2023-05-29T06:03:21;101468.28;;;20.03;68.02
20696;BME280;10507;52.754;13.040;2023-05-29T06:05:49;101307.47;;;20.14;67.02
20696;BME280;10507;52.754;13.040;2023-05-29T06:08:19;101408.50;;;20.74;65.92
20696;BME280;10507;52.754;13.040;2023-05-29T06:10:48;101147.88;;;20.21;66.12
20696;BME280;10507;52.754;13.040;2023-05-29T06:13:16;101159.00;;;20.61;63.67
20696;BME280;10507;52.754;13.040;2023-05-29T06:15:44;100996.19;;;19.76;65.57
20696;BME280;10507;52.754;13.040;2023-05-29T06:18:12;101085.94;;;19.93;65.92
20696;BME280;10507;52.754;13.040;2023-05-29T06:20:42;101227.06;;;20.35;65.95
20696;BME280;10507;52.754;13.040;2023-05-29T06:23:09;101170.59;;;21.05;62.76
20696;BME280;10507;52.754;13.040;2023-05-29T06:25:37;101246.16;;;21.32;63.66
20696;BME280;10507;52.754;13.040;2023-05-29T06:28:05;100958.25;;;20.71;63.38
20696;BME280;10507;52.754;13.040;2023-05-29T06:30:33;100876.31;;;20.04;63.78
20696;BME280;10507;52.754;13.040;2023-05-29T06:33:02;101042.91;;;20.32;65.02
20696;BME280;10507;52.754;13.040;2023-05-29T06:35:30;100861.13;;;19.92;64.53
20696;BME280;10507;52.754;13.040;2023-05-29T06:38:00;100842.75;;;19.96;64.08
20696;BME280;10507;52.754;13.040;2023-05-29T06:40:28;100831.81;;;19.65;64.37
20696;BME280;10507;52.754;13.040;2023-05-29T06:42:56;100887.09;;;19.73;64.03
20696;BME280;10507;52.754;13.040;2023-05-29T06:45:24;101050.16;;;20.43;63.64
20696;BME280;10507;52.754;13.040;2023-05-29T06:47:52;101098.09;;;21.17;61.62
20696;BME280;10507;52.754;13.040;2023-05-29T06:50:22;100936.56;;;21.11;60.77
20696;BME280;10507;52.754;13.040;2023-05-29T06:52:51;101115.94;;;21.62;61.37
20696;BME280;10507;52.754;13.040;2023-05-29T06:55:21;101117.06;;;22.19;59.89
20696;BME280;10507;52.754;13.040;2023-05-29T06:57:50;101036.28;;;22.78;57.44
20696;BME280;10507;52.754;13.040;2023-05-29T07:00:19;101137.16;;;23.15;57.30
20696;BME280;10507;52.754;13.040;2023-05-29T07:02:47;100787.22;;;22.36;57.18
20696;BME280;10507;52.754;13.040;2023-05-29T07:05:14;100861.97;;;22.13;58.53
20696;BME280;10507;52.754;13.040;2023-05-29T07:07:42;101065.53;;;23.05;57.55
20696;BME280;10507;52.754;13.040;2023-05-29T07:10:10;100809.50;;;22.50;57.27
20696;BME280;10507;52.754;13.040;2023-05-29T07:12:39;100932.53;;;22.53;58.70
20696;BME280;10507;52.754;13.040;2023-05-29T07:15:08;101052.25;;;23.20;58.45
20696;BME280;10507;52.754;13.040;2023-05-29T07:17:37;100916.28;;;22.71;58.97
20696;BME280;10507;52.754;13.040;2023-05-29T07:20:10;100925.91;;;23.03;58.22
20696;BME280;10507;52.754;13.040;2023-05-29T07:22:38;100897.78;;;23.02;57.99
20696;BME280;10507;52.754;13.040;2023-05-29T07:25:07;101256.16;;;24.38;57.56
20696;BME280;10507;52.754;13.040;2023-05-29T07:27:35;100900.84;;;23.81;56.57
20696;BME280;10507;52.754;13.040;2023-05-29T07:30:06;100825.44;;;23.54;56.33
20696;BME280;10507;52.754;13.040;2023-05-29T07:32:34;100984.25;;;24.01;56.35
20696;BME280;10507;52.754;13.040;2023-05-29T07:35:02;100780.19;;;23.79;55.36
20696;BME280;10507;52.754;13.040;2023-05-29T07:37:30;100848.31;;;23.97;55.02
20696;BME280;10507;52.754;13.040;2023-05-29T07:39:58;101093.91;;;24.95;53.93
20696;BME280;10507;52.754;13.040;2023-05-29T07:42:26;100948.66;;;25.07;53.97
20696;BME280;10507;52.754;13.040;2023-05-29T07:44:56;100890.41;;;25.66;51.98
20696;BME280;10507;52.754;13.040;2023-05-29T07:47:25;100713.00;;;25.14;51.58
20696;BME280;10507;52.754;13.040;2023-05-29T07:49:53;100897.22;;;25.45;52.04
20696;BME280;10507;52.754;13.040;2023-05-29T07:52:21;100892.16;;;26.00;50.69
20696;BME280;10507;52.754;13.040;2023-05-29T07:54:49;100985.03;;;26.34;51.07
20696;BME280;10507;52.754;13.040;2023-05-29T07:57:17;100738.97;;;25.42;51.28
20696;BME280;10507;52.754;13.040;2023-05-29T07:59:45;101037.22;;;26.41;50.85
20696;BME280;10507;52.754;13.040;2023-05-29T08:02:16;100704.28;;;25.59;50.12
20696;BME280;10507;52.754;13.040;2023-05-29T08:04:45;100722.06;;;25.63;49.44
20696;BME280;10507;52.754;13.040;2023-05-29T08:07:13;100675.25;;;25.17;50.13
20696;BME280;10507;52.754;13.040;2023-05-29T08:09:41;100876.75;;;25.74;50.43
20696;BME280;10507;52.754;13.040;2023-05-29T08:12:09;100934.69;;;25.69;51.47
20696;BME280;10507;52.754;13.040;2023-05-29T08:14:37;100919.34;;;26.09;50.39
20696;BME280;10507;52.754;13.040;2023-05-29T08:17:05;100747.84;;;25.69;50.18
20696;BME280;10507;52.754;13.040;2023-05-29T08:19:33;100698.13;;;25.57;49.66
20696;BME280;10507;52.754;13.040;2023-05-29T08:22:03;100824.78;;;25.99;49.92
20696;BME280;10507;52.754;13.040;2023-05-29T08:24:32;100741.13;;;24.73;51.47
20696;BME280;10507;52.754;13.040;2023-05-29T08:27:00;100795.34;;;24.60;52.58
20696;BME280;10507;52.754;13.040;2023-05-29T08:29:29;100828.16;;;24.76;52.16
20696;BME280;10507;52.754;13.040;2023-05-29T08:31:57;100853.66;;;24.93;51.83
20696;BME280;10507;52.754;13.040;2023-05-29T08:34:25;100927.47;;;24.67;53.22
20696;BME280;10507;52.754;13.040;2023-05-29T08:36:52;100987.50;;;25.19;53.25
20696;BME280;10507;52.754;13.040;2023-05-29T08:39:23;100940.47;;;25.50;51.72
20696;BME280;10507;52.754;13.040;2023-05-29T08:41:56;100914.34;;;25.72;50.73
20696;BME280;10507;52.754;13.040;2023-05-29T08:44:30;100913.47;;;25.55;51.40
20696;BME280;10507;52.754;13.040;2023-05-29T08:47:01;100651.47;;;23.41;52.19
20696;BME280;10507;52.754;13.040;2023-05-29T08:49:40;100817.53;;;22.97;54.11
20696;BME280;10507;52.754;13.040;2023-05-29T08:52:11;100884.59;;;22.98;55.01
20696;BME280;10507;52.754;13.040;2023-05-29T08:54:40;100730.59;;;22.22;54.55
20696;BME280;10507;52.754;13.040;2023-05-29T08:57:10;100886.03;;;22.08;56.26
20696;BME280;10507;52.754;13.040;2023-05-29T08:59:42;100891.34;;;21.90;57.24
20696;BME280;10507;52.754;13.040;2023-05-29T09:02:11;100988.66;;;21.86;58.64
20696;BME280;10507;52.754;13.040;2023-05-29T09:04:41;100995.09;;;21.95;58.24
20696;BME280;10507;52.754;13.040;2023-05-29T09:07:11;101052.41;;;22.32;57.33
20696;BME280;10507;52.754;13.040;2023-05-29T09:09:40;100866.63;;;21.93;55.95
20696;BME280;10507;52.754;13.040;2023-05-29T09:12:09;100981.38;;;22.16;56.97
20696;BME280;10507;52.754;13.040;2023-05-29T09:14:38;100987.53;;;22.18;56.21
20696;BME280;10507;52.754;13.040;2023-05-29T09:17:08;100964.19;;;21.96;56.52
20696;BME280;10507;52.754;13.040;2023-05-29T09:19:36;100973.91;;;21.79;56.95
20696;BME280;10507;52.754;13.040;2023-05-29T09:22:08;101115.81;;;22.33;57.19
20696;BME280;10507;52.754;13.040;2023-05-29T09:24:37;101017.72;;;21.95;56.89
20696;BME280;10507;52.754;13.040;2023-05-29T09:27:08;100961.75;;;21.64;57.14
20696;BME280;10507;52.754;13.040;2023-05-29T09:29:38;100986.03;;;21.15;58.71
20696;BME280;10507;52.754;13.040;2023-05-29T09:32:08;101053.97;;;21.25;58.99
20696;BME280;10507;52.754;13.040;2023-05-29T09:34:36;101014.88;;;21.06;58.73
20696;BME280;10507;52.754;13.040;2023-05-29T09:37:06;101138.94;;;21.98;57.53
20696;BME280;10507;52.754;13.040;2023-05-29T09:39:44;101111.28;;;22.33;56.19
20696;BME280;10507;52.754;13.040;2023-05-29T09:42:15;101106.81;;;22.61;55.70
20696;BME280;10507;52.754;13.040;2023-05-29T09:44:45;100984.50;;;22.21;55.13
20696;BME280;10507;52.754;13.040;2023-05-29T09:47:16;101123.72;;;22.65;55.99
20696;BME280;10507;52.754;13.040;2023-05-29T09:49:44;101067.97;;;22.11;56.71
20696;BME280;10507;52.754;13.040;2023-05-29T09:52:13;101050.34;;;22.15;56.59
20696;BME280;10507;52.754;13.040;2023-05-29T09:54:43;100995.66;;;22.08;55.79
20696;BME280;10507;52.754;13.040;2023-05-29T09:57:14;100889.38;;;21.63;55.51
20696;BME280;10507;52.754;13.040;2023-05-29T09:59:44;100946.91;;;21.27;57.00
20696;BME280;10507;52.754;13.040;2023-05-29T10:02:15;101005.47;;;21.51;56.59
20696;BME280;10507;52.754;13.040;2023-05-29T10:04:43;101084.88;;;22.24;55.77
20696;BME280;10507;52.754;13.040;2023-05-29T10:07:18;100992.50;;;22.61;53.22
20696;BME280;10507;52.754;13.040;2023-05-29T10:09:53;101028.66;;;22.91;52.74
20696;BME280;10507;52.754;13.040;2023-05-29T10:12:24;100939.00;;;22.13;54.99
20696;BME280;10507;52.754;13.040;2023-05-29T10:14:56;100980.34;;;21.78;56.37
20696;BME280;10507;52.754;13.040;2023-05-29T10:17:26;100928.19;;;21.34;56.60
20696;BME280;10507;52.754;13.040;2023-05-29T10:19:57;100901.41;;;20.69;57.72
20696;BME280;10507;52.754;13.040;2023-05-29T10:22:27;100938.84;;;20.75;57.29
20696;BME280;10507;52.754;13.040;2023-05-29T10:24:56;100934.50;;;20.94;56.23
20696;BME280;10507;52.754;13.040;2023-05-29T10:27:26;100962.88;;;21.11;55.92
20696;BME280;10507;52.754;13.040;2023-05-29T10:29:58;101021.97;;;21.69;54.53
20696;BME280;10507;52.754;13.040;2023-05-29T10:32:32;100995.69;;;22.18;52.45
20696;BME280;10507;52.754;13.040;2023-05-29T10:35:08;101002.13;;;22.56;52.38
20696;BME280;10507;52.754;13.040;2023-05-29T10:37:42;100901.50;;;22.27;52.56
20696;BME280;10507;52.754;13.040;2023-05-29T10:40:12;100851.16;;;21.74;53.13
20696;BME280;10507;52.754;13.040;2023-05-29T10:42:44;100928.19;;;21.34;55.09
20696;BME280;10507;52.754;13.040;2023-05-29T10:45:50;100856.47;;;20.86;55.19
20696;BME280;10507;52.754;13.040;2023-05-29T10:48:43;100961.00;;;21.11;55.72
20696;BME280;10507;52.754;13.040;2023-05-29T10:51:28;100990.50;;;21.26;56.37
20696;BME280;10507;52.754;13.040;2023-05-29T10:53:57;101029.09;;;21.60;55.91
20696;BME280;10507;52.754;13.040;2023-05-29T10:56:28;100951.59;;;21.75;53.80
20696;BME280;10507;52.754;13.040;2023-05-29T10:58:59;100979.22;;;21.71;54.43
20696;BME280;10507;52.754;13.040;2023-05-29T11:01:29;100939.69;;;21.47;54.63
20696;BME280;10507;52.754;13.040;2023-05-29T11:04:25;100994.09;;;21.86;54.12
20696;BME280;10507;52.754;13.040;2023-05-29T11:06:54;101026.63;;;22.36;52.87
20696;BME280;10507;52.754;13.040;2023-05-29T11:09:29;101063.50;;;22.97;52.51
20696;BME280;10507;52.754;13.040;2023-05-29T11:12:21;100958.75;;;22.92;50.86
20696;BME280;10507;52.754;13.040;2023-05-29T11:15:05;101076.38;;;23.15;52.79
20696;BME280;10507;52.754;13.040;2023-05-29T11:17:43;100958.19;;;22.21;53.64
20696;BME280;10507;52.754;13.040;2023-05-29T11:20:35;100875.31;;;21.38;55.07
20696;BME280;10507;52.754;13.040;2023-05-29T11:23:05;100986.56;;;21.09;57.22
20696;BME280;10507;52.754;13.040;2023-05-29T11:25:36;100931.84;;;21.13;55.94
20696;BME280;10507;52.754;13.040;2023-05-29T11:28:05;100951.75;;;21.24;55.54
20696;BME280;10507;52.754;13.040;2023-05-29T11:30:46;100910.41;;;21.10;55.57
20696;BME280;10507;52.754;13.040;2023-05-29T11:33:24;100966.91;;;21.26;55.82
20696;BME280;10507;52.754;13.040;2023-05-29T11:35:57;100905.84;;;21.21;54.85
20696;BME280;10507;52.754;13.040;2023-05-29T11:38:25;100969.25;;;21.41;54.77
20696;BME280;10507;52.754;13.040;2023-05-29T11:40:54;101062.63;;;21.80;55.46
20696;BME280;10507;52.754;13.040;2023-05-29T11:43:22;101038.63;;;22.14;54.34
20696;BME280;10507;52.754;13.040;2023-05-29T11:45:51;101068.44;;;22.65;53.67
20696;BME280;10507;52.754;13.040;2023-05-29T11:48:20;101005.13;;;22.53;53.45
20696;BME280;10507;52.754;13.040;2023-05-29T11:50:51;100888.31;;;22.12;52.64
20696;BME280;10507;52.754;13.040;2023-05-29T11:53:19;101010.00;;;22.39;53.54
20696;BME280;10507;52.754;13.040;2023-05-29T11:55:48;101021.78;;;22.40;53.67
20696;BME280;10507;52.754;13.040;2023-05-29T11:58:16;100995.06;;;22.73;52.65
20696;BME280;10507;52.754;13.040;2023-05-29T12:00:44;100963.19;;;22.46;52.79
20696;BME280;10507;52.754;13.040;2023-05-29T12:03:15;100943.44;;;22.34;53.07
20696;BME280;10507;52.754;13.040;2023-05-29T12:05:45;100984.41;;;22.23;53.89
20696;BME280;10507;52.754;13.040;2023-05-29T12:08:13;100918.25;;;21.83;54.59
20696;BME280;10507;52.754;13.040;2023-05-29T12:10:46;100966.59;;;21.70;54.85
20696;BME280;10507;52.754;13.040;2023-05-29T12:13:15;100888.09;;;21.67;53.51
20696;BME280;10507;52.754;13.040;2023-05-29T12:15:44;100942.44;;;21.67;54.10
20696;BME280;10507;52.754;13.040;2023-05-29T12:18:12;100903.97;;;21.62;53.84
20696;BME280;10507;52.754;13.040;2023-05-29T12:20:41;100891.28;;;21.22;54.84
20696;BME280;10507;52.754;13.040;2023-05-29T12:23:09;100837.50;;;20.96;54.04
20696;BME280;10507;52.754;13.040;2023-05-29T12:25:38;100924.66;;;21.43;54.44
20696;BME280;10507;52.754;13.040;2023-05-29T12:28:06;100925.22;;;21.37;54.89
20696;BME280;10507;52.754;13.040;2023-05-29T12:30:37;100912.31;;;21.20;55.25
20696;BME280;10507;52.754;13.040;2023-05-29T12:33:05;100861.91;;;20.96;54.28
20696;BME280;10507;52.754;13.040;2023-05-29T12:35:34;100863.97;;;21.13;53.64
20696;BME280;10507;52.754;13.040;2023-05-29T12:38:05;100835.38;;;21.09;52.80
20696;BME280;10507;52.754;13.040;2023-05-29T12:40:35;100847.75;;;21.43;51.47
20696;BME280;10507;52.754;13.040;2023-05-29T12:43:05;100910.97;;;21.64;52.55
20696;BME280;10507;52.754;13.040;2023-05-29T12:45:33;100979.66;;;22.05;52.47
20696;BME280;10507;52.754;13.040;2023-05-29T12:48:03;100916.94;;;22.16;51.41
20696;BME280;10507;52.754;13.040;2023-05-29T12:50:33;100869.44;;;22.01;50.96